Bei Facebook empfehlenBei Twitter postenGoogle plusPinterest

Das Wetter im Erzgebirge am 27.05.2016

Wetter und Klima am 27.05.2016 Holzhau im Erzgebirge (630m ü.NN)
Letzte gemessene Temperatur und Uhrzeit der Messung23:45:00 Uhr10.30 °C
Temperatur (Maximum / Höchstwert) und Uhrzeit der Messung14:30:00 Uhr23.10 °C
Temperatur (Minimum / Tiefstwert) und Uhrzeit der Messung06:15:008.20 °C
Errechneter Absolutwert der Temperaturschwankungen zwischen Tmin und Tmax des Tages14.90 K
Errechnete Tagesmitteltemperatur14.50313 °C
Gesamt - Niederschlag des Tages (in flüssiger Form)3.11 Liter / m²
Luftdruck (Maximum / Höchstwert) und Zeitpunkt der Messung00:30:00 Uhr1014.20 hPa
Luftdruck (Minimum / Tiefstwert) und Zeitpunkt der Messung15:15:00 Uhr1012.90 hPa
Errechneter Absolutwert der Luftdruckschwankungen des Tages1.30 hPa
Höchste gemessene Windgeschwindigkeit und Uhrzeit der Messung23:45:00 Uhr0.00 km/h
Errechnete Windhäufigkeit in Relation zu den Messwerten des Tages0.00000 %
Niedrigste Windkühle (Windchill) und Zeitpunkt der Messung06:15:00 Uhr8.20 °C
Taupunkt (Maximum / Höchstwert) und Uhrzeit der Messung14:30:00 Uhr15.20 °C
Taupunkt (Minimum / Tiefstwert) und Uhrzeit der Messung06:15:007.10 °C
Anzahl der automatisch eingelesenen Messwerte 96

Detaillierte Wetter- und Klima- Messwerte für den 27.05.2016 in Holzhau im Erzgebirge (630m ü.NN)
ZeitTemperaturLuftdruckRel. LuftfeuchteWindWindrichtungWindchillTaupunktNiederschlag l/m²
23:45:0010.30 °C1013.20 hPa93.00 %9.20 °C3.11
23:30:0010.10 °C1013.10 hPa92.00 %8.90 °C3.11
23:15:0010.10 °C1013.10 hPa92.00 %8.90 °C3.11
23:00:0010.20 °C1013.00 hPa91.00 %8.80 °C3.11
22:45:0010.60 °C1013.30 hPa91.00 %9.20 °C3.11
22:30:0011.10 °C1013.20 hPa91.00 %9.70 °C3.11
22:15:0011.40 °C1013.30 hPa91.00 %10.00 °C3.11
22:00:0012.00 °C1013.40 hPa91.00 %10.60 °C3.11
21:45:0012.50 °C1013.40 hPa91.00 %11.10 °C3.11
21:30:0012.90 °C1013.40 hPa90.00 %11.30 °C3.11
21:15:0013.30 °C1013.30 hPa91.00 %11.90 °C3.11
21:00:0013.50 °C1013.40 hPa90.00 %11.90 °C3.11
20:45:0013.80 °C1013.20 hPa90.00 %12.20 °C3.11
20:30:0014.20 °C1013.30 hPa89.00 %12.40 °C3.11
20:15:0014.40 °C1013.10 hPa89.00 %12.60 °C3.11
20:00:0014.90 °C1013.10 hPa89.00 %13.10 °C3.11
19:45:0015.30 °C1013.10 hPa89.00 %13.50 °C3.11
19:30:0015.60 °C1013.20 hPa90.00 %14.00 °C3.11
19:15:0015.60 °C1013.10 hPa90.00 %14.00 °C3.11
19:00:0015.10 °C1013.10 hPa90.00 %13.50 °C3.11
18:45:0014.90 °C1013.30 hPa90.00 %13.30 °C3.11
18:30:0014.50 °C1013.30 hPa89.00 %12.70 °C3.11
18:15:0014.20 °C1013.10 hPa88.00 %12.20 °C3.11
18:00:0014.10 °C1013.20 hPa87.00 %12.00 °C3.11
17:45:0013.90 °C1013.50 hPa85.00 %11.40 °C3.11
17:30:0014.10 °C1013.50 hPa83.00 %11.30 °C2.07
17:15:0014.90 °C1013.70 hPa81.00 %11.70 °C0.52
17:00:0015.60 °C1013.80 hPa78.00 %11.80 °C 
16:45:0016.70 °C1013.20 hPa75.00 %12.30 °C 
16:30:0017.70 °C1013.00 hPa71.00 %12.40 °C 
16:15:0018.30 °C1013.00 hPa70.00 %12.70 °C 
16:00:0019.20 °C1013.20 hPa67.00 %12.90 °C 
15:45:0020.30 °C1013.20 hPa64.00 %13.30 °C 
15:30:0021.80 °C1013.10 hPa61.00 %13.90 °C 
15:15:0022.40 °C1012.90 hPa61.00 %14.50 °C 
15:00:0022.50 °C1013.00 hPa61.00 %14.60 °C 
14:45:0022.60 °C1013.00 hPa60.00 %14.40 °C 
14:30:0023.10 °C1013.00 hPa61.00 %15.20 °C 
14:15:0022.80 °C1013.00 hPa62.00 %15.10 °C 
14:00:0022.30 °C1013.10 hPa62.00 %14.70 °C 
13:45:0021.90 °C1013.20 hPa62.00 %14.30 °C 
13:30:0021.60 °C1013.10 hPa62.00 %14.00 °C 
13:15:0021.40 °C1013.20 hPa61.00 %13.60 °C 
13:00:0021.60 °C1013.20 hPa62.00 %14.00 °C 
12:45:0022.10 °C1013.30 hPa61.00 %14.20 °C 
12:30:0021.80 °C1013.30 hPa62.00 %14.20 °C 
12:15:0021.40 °C1013.50 hPa62.00 %13.80 °C 
12:00:0021.90 °C1013.40 hPa62.00 %14.30 °C 
11:45:0021.80 °C1013.30 hPa62.00 %14.20 °C 
11:30:0022.00 °C1013.40 hPa63.00 %14.60 °C 
11:15:0021.80 °C1013.40 hPa65.00 %14.90 °C 
11:00:0021.20 °C1013.40 hPa66.00 %14.60 °C 
10:45:0020.80 °C1013.40 hPa69.00 %14.90 °C 
10:30:0019.80 °C1013.40 hPa72.00 %14.60 °C 
10:15:0019.10 °C1013.70 hPa73.00 %14.10 °C 
10:00:0018.50 °C1013.50 hPa75.00 %14.00 °C 
09:45:0018.30 °C1013.50 hPa76.00 %14.00 °C 
09:30:0017.90 °C1013.40 hPa79.00 %14.20 °C 
09:15:0017.30 °C1013.70 hPa82.00 %14.20 °C 
09:00:0016.80 °C1013.50 hPa85.00 %14.30 °C 
08:45:0016.20 °C1013.60 hPa89.00 %14.40 °C 
08:30:0015.10 °C1013.70 hPa90.00 %13.50 °C 
08:15:0014.60 °C1013.50 hPa91.00 %13.10 °C 
08:00:0014.10 °C1013.40 hPa92.00 %12.80 °C 
07:45:0013.80 °C1013.30 hPa92.00 %12.50 °C 
07:30:0013.20 °C1013.20 hPa93.00 %12.10 °C 
07:15:0011.80 °C1013.20 hPa94.00 %10.90 °C 
07:00:0010.90 °C1013.20 hPa94.00 %10.00 °C 
06:45:0010.10 °C1013.20 hPa94.00 %9.20 °C 
06:30:008.70 °C1013.50 hPa93.00 %7.60 °C 
06:15:008.20 °C1013.40 hPa93.00 %7.10 °C 
06:00:008.30 °C1013.40 hPa93.00 %7.20 °C 
05:45:008.50 °C1013.60 hPa93.00 %7.40 °C 
05:30:008.50 °C1013.50 hPa93.00 %7.40 °C 
05:15:008.80 °C1013.20 hPa93.00 %7.70 °C 
05:00:009.10 °C1013.30 hPa93.00 %8.00 °C 
04:45:009.00 °C1013.20 hPa93.00 %7.90 °C 
04:30:009.00 °C1013.30 hPa93.00 %7.90 °C 
04:15:008.90 °C1013.30 hPa93.00 %7.80 °C 
04:00:008.80 °C1013.20 hPa93.00 %7.70 °C 
03:45:008.60 °C1013.30 hPa92.00 %7.40 °C 
03:30:008.90 °C1013.40 hPa92.00 %7.70 °C 
03:15:009.00 °C1013.20 hPa92.00 %7.80 °C 
03:00:009.10 °C1013.30 hPa92.00 %7.90 °C 
02:45:009.30 °C1013.40 hPa92.00 %8.10 °C 
02:30:009.50 °C1013.40 hPa92.00 %8.30 °C 
02:15:009.60 °C1013.70 hPa92.00 %8.40 °C 
02:00:009.40 °C1013.70 hPa92.00 %8.20 °C 
01:45:009.30 °C1013.60 hPa92.00 %8.10 °C 
01:30:009.00 °C1013.80 hPa92.00 %7.80 °C 
01:15:009.00 °C1013.90 hPa92.00 %7.80 °C 
01:00:008.80 °C1014.00 hPa91.00 %7.40 °C 
00:45:008.90 °C1014.10 hPa91.00 %7.50 °C 
00:30:008.90 °C1014.20 hPa91.00 %7.50 °C 
00:15:008.90 °C1014.20 hPa90.00 %7.40 °C 
00:00:008.70 °C1014.20 hPa90.00 %7.20 °C 

Permanenter Link zu dieser Seite: Wetter im Erzgebirge am 27.05.2016
Performance-Info: Die Erstellung der Seite / Statistik(en) / Tabelle(n) erforderte 5 Datenbankserver-Abfrage(n) und dauerte 103 Millisekunden. (Dieser Messwert ist von der Gesamt-Auslastung des Servers abhängig.)
Erzgebirge - Wetter | Erzgebirge - Wetter (Mobilgeräte) | Komplette Klimadatenbank